createdAt,value
2018-07-24T00:01:49.990Z,19.23
2018-07-24T00:04:18.452Z,18.40
2018-07-24T00:06:47.491Z,19.15
2018-07-24T00:09:16.103Z,20.90
2018-07-24T00:11:44.876Z,20.70
2018-07-24T00:14:13.191Z,19.60
2018-07-24T00:16:41.767Z,19.67
2018-07-24T00:19:10.171Z,20.30
2018-07-24T00:21:38.579Z,22.07
2018-07-24T00:24:07.610Z,19.57
2018-07-24T00:26:36.868Z,20.15
2018-07-24T00:29:05.793Z,19.27
2018-07-24T00:31:34.209Z,19.50
2018-07-24T00:34:02.717Z,19.90
2018-07-24T00:36:31.402Z,20.03
2018-07-24T00:38:59.743Z,20.90
2018-07-24T00:41:28.089Z,20.90
2018-07-24T00:43:56.412Z,21.33
2018-07-24T00:46:24.950Z,22.13
2018-07-24T00:48:53.506Z,20.33
2018-07-24T00:51:22.142Z,22.70
2018-07-24T00:53:50.439Z,21.67
2018-07-24T00:56:18.837Z,19.70
2018-07-24T00:58:47.316Z,23.83
2018-07-24T01:01:15.694Z,20.03
2018-07-24T01:03:43.988Z,26.30
2018-07-24T01:06:12.319Z,21.97
2018-07-24T01:08:40.962Z,21.73
2018-07-24T01:11:09.519Z,23.10
2018-07-24T01:13:37.935Z,20.80
2018-07-24T01:16:06.892Z,23.57
2018-07-24T01:18:35.793Z,26.55
2018-07-24T01:21:04.507Z,22.63
2018-07-24T01:23:33.196Z,21.30
2018-07-24T01:26:02.187Z,20.87
2018-07-24T01:28:30.615Z,21.27
2018-07-24T01:30:59.088Z,22.70
2018-07-24T01:33:27.718Z,24.83
2018-07-24T01:35:56.068Z,22.37
2018-07-24T01:38:25.340Z,22.70
2018-07-24T01:40:53.633Z,26.27
2018-07-24T01:43:21.970Z,25.07
2018-07-24T01:45:50.717Z,21.00
2018-07-24T01:48:19.415Z,23.63
2018-07-24T01:50:47.729Z,28.93
2018-07-24T01:53:16.192Z,21.43
2018-07-24T01:55:45.100Z,26.80
2018-07-24T01:58:13.772Z,25.67
2018-07-24T02:00:42.155Z,23.93
2018-07-24T02:03:10.624Z,25.03
2018-07-24T02:05:39.207Z,21.50
2018-07-24T02:08:08.779Z,23.57
2018-07-24T02:10:37.382Z,23.73
2018-07-24T02:13:05.968Z,25.33
2018-07-24T02:15:34.360Z,24.97
2018-07-24T02:18:03.190Z,22.73
2018-07-24T02:20:31.819Z,25.70
2018-07-24T02:23:00.521Z,28.93
2018-07-24T02:25:28.835Z,23.70
2018-07-24T02:27:57.919Z,22.60
2018-07-24T02:30:26.909Z,22.63
2018-07-24T02:32:55.531Z,21.07
2018-07-24T02:35:23.839Z,25.07
2018-07-24T02:37:52.154Z,26.10
2018-07-24T02:40:20.796Z,25.87
2018-07-24T02:42:49.442Z,29.27
2018-07-24T02:45:18.177Z,28.90
2018-07-24T02:47:46.557Z,27.17
2018-07-24T02:50:14.971Z,22.47
2018-07-24T02:52:43.896Z,25.05
2018-07-24T02:55:13.860Z,24.40
2018-07-24T02:57:42.607Z,24.37
2018-07-24T03:00:11.268Z,26.00
2018-07-24T03:02:39.986Z,27.60
2018-07-24T03:05:08.299Z,26.67
2018-07-24T03:07:37.181Z,27.63
2018-07-24T03:10:05.920Z,28.47
2018-07-24T03:12:34.873Z,25.17
2018-07-24T03:15:03.274Z,27.40
2018-07-24T03:17:31.588Z,26.60
2018-07-24T03:19:59.887Z,24.77
2018-07-24T03:22:28.541Z,25.17
2018-07-24T03:24:56.882Z,27.73
2018-07-24T03:27:25.227Z,24.80
2018-07-24T03:29:53.555Z,23.37
2018-07-24T03:32:22.290Z,32.23
2018-07-24T03:34:50.874Z,28.23
2018-07-24T03:37:19.472Z,24.80
2018-07-24T03:39:47.851Z,30.53
2018-07-24T03:42:17.272Z,30.80
2018-07-24T03:44:45.893Z,26.02
2018-07-24T03:47:14.241Z,25.40
2018-07-24T03:49:42.651Z,25.27
2018-07-24T03:52:12.044Z,25.88
2018-07-24T03:54:40.596Z,29.00
2018-07-24T03:57:09.752Z,26.93
2018-07-24T03:59:38.161Z,32.50
2018-07-24T04:02:06.795Z,27.93
2018-07-24T04:04:35.159Z,28.80
2018-07-24T04:07:03.489Z,24.77
2018-07-24T04:09:31.857Z,32.50
2018-07-24T04:12:00.188Z,32.00
2018-07-24T04:14:28.564Z,25.93
2018-07-24T04:16:56.928Z,33.37
2018-07-24T04:19:25.764Z,27.27
2018-07-24T04:21:54.905Z,29.52
2018-07-24T04:24:23.591Z,26.37
2018-07-24T04:26:51.995Z,24.47
2018-07-24T04:29:21.370Z,25.45
2018-07-24T04:31:49.816Z,25.73
2018-07-24T04:34:18.816Z,23.93
2018-07-24T04:36:47.405Z,31.83
2018-07-24T04:39:16.099Z,24.60
2018-07-24T04:41:44.647Z,25.90
2018-07-24T04:44:13.548Z,26.10
2018-07-24T04:46:42.244Z,27.10
2018-07-24T04:49:10.583Z,22.83
2018-07-24T04:51:39.440Z,22.80
2018-07-24T04:54:08.196Z,26.40
2018-07-24T04:56:36.793Z,28.57
2018-07-24T04:59:05.445Z,23.83
2018-07-24T05:01:33.779Z,28.57
2018-07-24T05:04:02.116Z,24.17
2018-07-24T05:06:31.192Z,22.75
2018-07-24T05:08:59.636Z,28.43
2018-07-24T05:11:28.145Z,23.73
2018-07-24T05:13:57.095Z,23.47
2018-07-24T05:16:25.719Z,24.30
2018-07-24T05:18:54.497Z,23.60
2018-07-24T05:21:24.012Z,23.77
2018-07-24T05:23:52.802Z,26.57
2018-07-24T05:26:21.290Z,26.77
2018-07-24T05:28:49.628Z,23.20
2018-07-24T05:31:18.151Z,21.33
2018-07-24T05:33:47.035Z,23.92
2018-07-24T05:36:15.695Z,20.10
2018-07-24T05:38:44.101Z,24.83
2018-07-24T05:41:12.732Z,28.00
2018-07-24T05:43:41.364Z,26.20
2018-07-24T05:46:09.718Z,21.30
2018-07-24T05:48:38.067Z,21.37
2018-07-24T05:51:06.824Z,24.77
2018-07-24T05:53:35.529Z,23.12
2018-07-24T05:56:04.300Z,24.33
2018-07-24T05:58:32.878Z,25.17
2018-07-24T06:01:01.668Z,28.23
2018-07-24T06:03:30.416Z,22.97
2018-07-24T06:05:58.748Z,20.20
2018-07-24T06:08:27.327Z,20.68
2018-07-24T06:10:55.951Z,23.10
2018-07-24T06:13:25.012Z,22.55
2018-07-24T06:15:53.752Z,22.53
2018-07-24T06:18:22.076Z,23.13
2018-07-24T06:20:51.393Z,21.80
2018-07-24T06:23:19.803Z,21.23
2018-07-24T06:25:48.178Z,24.40
2018-07-24T06:28:16.484Z,21.25
2018-07-24T06:30:45.295Z,21.87
2018-07-24T06:33:13.704Z,20.57
2018-07-24T06:35:42.024Z,20.80
2018-07-24T06:38:10.376Z,18.67
2018-07-24T06:40:38.696Z,21.27
2018-07-24T06:43:07.932Z,18.70
2018-07-24T06:45:37.477Z,18.60
2018-07-24T06:48:05.797Z,16.37
2018-07-24T06:50:34.105Z,16.90
2018-07-24T06:53:02.877Z,14.85
2018-07-24T06:55:31.443Z,16.73
2018-07-24T06:57:59.751Z,21.20
2018-07-24T07:00:28.327Z,16.87
2018-07-24T07:02:56.996Z,16.67
2018-07-24T07:05:25.422Z,17.40
2018-07-24T07:07:54.244Z,15.37
2018-07-24T07:10:23.086Z,14.63
2018-07-24T07:12:52.095Z,14.67
2018-07-24T07:15:20.401Z,14.00
2018-07-24T07:17:48.795Z,13.30
2018-07-24T07:20:17.364Z,13.25
2018-07-24T07:22:45.764Z,13.57
2018-07-24T07:25:14.730Z,16.10
2018-07-24T07:27:43.656Z,14.25
2018-07-24T07:30:12.905Z,12.73
2018-07-24T07:32:41.649Z,13.87
2018-07-24T07:35:10.128Z,12.60
2018-07-24T07:37:38.760Z,13.37
2018-07-24T07:40:07.764Z,11.90
2018-07-24T07:42:36.472Z,14.68
2018-07-24T07:45:05.183Z,13.77
2018-07-24T07:47:33.495Z,12.00
2018-07-24T07:50:02.180Z,16.90
2018-07-24T07:52:30.617Z,13.60
2018-07-24T07:54:59.691Z,12.50
2018-07-24T07:57:28.852Z,13.17
2018-07-24T07:59:57.272Z,14.20
2018-07-24T08:02:26.102Z,13.40
2018-07-24T08:04:54.623Z,11.43
2018-07-24T08:07:23.335Z,14.78
2018-07-24T08:09:52.324Z,12.63
2018-07-24T08:12:21.244Z,13.33
2018-07-24T08:14:50.081Z,11.40
2018-07-24T08:17:18.790Z,9.50
2018-07-24T08:19:47.509Z,10.17
2018-07-24T08:22:15.980Z,10.67
2018-07-24T08:24:44.555Z,11.83
2018-07-24T08:27:12.917Z,8.50
2018-07-24T08:29:41.972Z,9.80
2018-07-24T08:32:10.347Z,10.50
2018-07-24T08:34:39.031Z,8.50
2018-07-24T08:37:07.642Z,9.80
2018-07-24T08:39:36.647Z,8.87
2018-07-24T08:42:05.054Z,8.53
2018-07-24T08:44:33.651Z,8.25
2018-07-24T08:47:02.317Z,12.00
2018-07-24T08:49:31.061Z,8.20
2018-07-24T08:51:59.807Z,7.93
2018-07-24T08:54:28.445Z,7.13
2018-07-24T08:56:57.275Z,8.13
2018-07-24T08:59:25.736Z,9.10
2018-07-24T09:01:54.574Z,8.60
2018-07-24T09:04:22.905Z,8.90
2018-07-24T09:06:52.285Z,7.90
2018-07-24T09:09:20.946Z,7.90
2018-07-24T09:11:49.551Z,8.60
2018-07-24T09:14:17.925Z,8.47
2018-07-24T09:16:46.876Z,8.03
2018-07-24T09:19:15.729Z,7.70
2018-07-24T09:21:44.364Z,8.18
2018-07-24T09:24:12.678Z,7.90
2018-07-24T09:26:43.131Z,8.37
2018-07-24T09:29:12.808Z,8.13
2018-07-24T09:31:41.768Z,7.70
2018-07-24T09:34:10.176Z,7.80
2018-07-24T09:36:38.520Z,7.65
2018-07-24T09:39:08.847Z,7.53
2018-07-24T09:41:38.259Z,8.03
2018-07-24T09:44:07.170Z,9.70
2018-07-24T09:46:35.920Z,8.30
2018-07-24T09:49:04.584Z,7.30
2018-07-24T09:51:33.554Z,7.27
2018-07-24T09:54:02.167Z,7.63
2018-07-24T09:56:31.126Z,7.80
2018-07-24T09:58:59.591Z,7.50
2018-07-24T10:01:32.160Z,9.23
2018-07-24T10:04:01.409Z,9.08
2018-07-24T10:06:29.969Z,6.93
2018-07-24T10:08:58.507Z,7.37
2018-07-24T10:11:26.955Z,8.83
2018-07-24T10:13:55.869Z,7.23
2018-07-24T10:16:24.592Z,7.70
2018-07-24T10:18:53.178Z,7.40
2018-07-24T10:21:21.758Z,7.13
2018-07-24T10:23:50.449Z,7.80
2018-07-24T10:26:19.436Z,7.23
2018-07-24T10:28:48.263Z,7.70
2018-07-24T10:31:17.156Z,7.50
2018-07-24T10:33:46.081Z,6.77
2018-07-24T10:36:14.478Z,6.30
2018-07-24T10:38:43.110Z,6.90
2018-07-24T10:41:11.793Z,7.00
2018-07-24T10:43:40.422Z,7.25
2018-07-24T10:46:09.105Z,7.40
2018-07-24T10:48:37.879Z,6.70
2018-07-24T10:51:06.224Z,9.00
2018-07-24T10:53:35.099Z,6.77
2018-07-24T10:56:03.929Z,7.20
2018-07-24T10:58:32.516Z,8.10
2018-07-24T11:01:00.973Z,7.17
2018-07-24T11:03:29.420Z,6.33
2018-07-24T11:05:57.827Z,6.40
2018-07-24T11:08:26.192Z,7.03
2018-07-24T11:10:54.896Z,7.43
2018-07-24T11:13:23.562Z,6.07
2018-07-24T11:15:52.144Z,6.10
2018-07-24T11:18:20.496Z,6.33
2018-07-24T11:20:48.849Z,7.40
2018-07-24T11:23:17.711Z,6.87
2018-07-24T11:25:46.611Z,5.73
2018-07-24T11:28:15.355Z,5.47
2018-07-24T11:30:43.908Z,5.10
2018-07-24T11:33:12.811Z,9.30
2018-07-24T11:35:41.880Z,5.83
2018-07-24T11:38:11.403Z,5.63
2018-07-24T11:40:40.243Z,5.57
2018-07-24T11:43:12.485Z,5.13
2018-07-24T11:45:41.778Z,6.00
2018-07-24T11:48:11.133Z,5.53
2018-07-24T11:50:41.019Z,4.80
2018-07-24T11:53:13.200Z,5.47
2018-07-24T11:55:43.200Z,5.20
2018-07-24T11:58:12.842Z,5.03
2018-07-24T12:00:47.204Z,4.50
2018-07-24T12:03:16.650Z,7.60
2018-07-24T12:05:46.810Z,5.07
2018-07-24T12:08:18.900Z,5.97
2018-07-24T12:10:51.634Z,5.10
2018-07-24T12:13:21.389Z,5.37
2018-07-24T12:15:51.425Z,6.53
2018-07-24T12:18:23.206Z,5.70
2018-07-24T12:20:54.340Z,5.50
2018-07-24T12:23:24.334Z,5.20
2018-07-24T12:25:52.840Z,5.03
2018-07-24T12:28:22.512Z,11.43
2018-07-24T12:30:52.655Z,5.13
2018-07-24T12:33:25.196Z,5.40
2018-07-24T12:35:54.851Z,5.37
2018-07-24T12:38:23.889Z,4.80
2018-07-24T12:40:52.771Z,4.50
2018-07-24T12:43:21.790Z,4.67
2018-07-24T12:45:52.036Z,4.65
2018-07-24T12:48:22.642Z,5.30
2018-07-24T12:50:51.923Z,5.45
2018-07-24T12:53:21.292Z,5.43
2018-07-24T12:55:50.507Z,4.70
2018-07-24T12:58:20.014Z,4.83
2018-07-24T13:00:50.050Z,5.17
2018-07-24T13:03:19.805Z,5.05
2018-07-24T13:05:52.557Z,4.47
2018-07-24T13:08:45.069Z,4.45
2018-07-24T13:14:07.674Z,5.37
2018-07-24T13:16:38.302Z,4.60
2018-07-24T13:19:12.005Z,4.87
2018-07-24T13:21:41.996Z,6.17
2018-07-24T13:24:12.108Z,4.17
2018-07-24T13:26:41.826Z,4.03
2018-07-24T13:29:12.845Z,5.40
2018-07-24T13:31:42.347Z,5.15
2018-07-24T13:34:11.612Z,5.22
2018-07-24T13:36:41.324Z,5.20
2018-07-24T13:39:12.465Z,4.80
2018-07-24T13:41:42.069Z,6.40
2018-07-24T13:44:11.678Z,4.90
2018-07-24T13:46:41.492Z,4.80
2018-07-24T13:49:11.503Z,4.50
2018-07-24T13:51:41.625Z,4.95
2018-07-24T13:54:10.279Z,4.75
2018-07-24T13:56:39.174Z,4.00
2018-07-24T13:59:07.588Z,4.33
2018-07-24T14:01:36.089Z,4.45
2018-07-24T14:04:05.276Z,4.83
2018-07-24T14:06:33.827Z,3.67
2018-07-24T14:09:03.101Z,4.83
2018-07-24T14:11:31.476Z,5.25
2018-07-24T14:13:59.643Z,5.10
2018-07-24T14:16:28.535Z,5.17
2018-07-24T14:18:57.469Z,4.30
2018-07-24T14:21:26.047Z,4.40
2018-07-24T14:23:54.672Z,4.65
2018-07-24T14:26:26.206Z,4.40
2018-07-24T14:28:56.193Z,7.90
2018-07-24T14:31:28.315Z,4.10
2018-07-24T14:33:57.145Z,4.40
2018-07-24T14:36:26.002Z,5.05
2018-07-24T14:38:54.638Z,4.08
2018-07-24T14:41:24.865Z,4.20
2018-07-24T14:43:53.992Z,4.62
2018-07-24T14:46:23.274Z,4.72
2018-07-24T14:48:52.544Z,4.57
2018-07-24T14:51:24.457Z,4.20
2018-07-24T14:53:53.084Z,4.90
2018-07-24T14:56:21.398Z,4.90
2018-07-24T14:58:50.386Z,3.98
2018-07-24T15:01:20.233Z,4.73
2018-07-24T15:03:48.589Z,4.43
2018-07-24T15:06:16.937Z,4.07
2018-07-24T15:08:45.691Z,4.90
2018-07-24T15:11:14.057Z,6.13
2018-07-24T15:13:42.364Z,5.40
2018-07-24T15:16:10.752Z,4.85
2018-07-24T15:18:39.571Z,5.22
2018-07-24T15:21:08.222Z,28.95
2018-07-24T15:23:36.774Z,4.57
2018-07-24T15:26:05.649Z,4.05
2018-07-24T15:28:34.970Z,4.80
2018-07-24T15:31:03.565Z,4.20
2018-07-24T15:33:32.480Z,4.70
2018-07-24T15:36:01.130Z,4.63
2018-07-24T15:38:29.956Z,5.45
2018-07-24T15:40:58.940Z,4.45
2018-07-24T15:43:28.309Z,4.90
2018-07-24T15:45:56.907Z,4.97
2018-07-24T15:48:25.670Z,6.05
2018-07-24T15:50:53.969Z,5.63
2018-07-24T15:53:22.349Z,4.80
2018-07-24T15:55:50.932Z,4.33
2018-07-24T15:58:19.565Z,4.33
2018-07-24T16:00:47.941Z,4.20
2018-07-24T16:03:17.121Z,5.07
2018-07-24T16:05:46.780Z,4.37
2018-07-24T16:08:15.904Z,4.27
2018-07-24T16:10:44.336Z,4.87
2018-07-24T16:13:13.471Z,4.53
2018-07-24T16:15:42.193Z,4.65
2018-07-24T16:18:11.732Z,5.30
2018-07-24T16:20:42.759Z,4.73
2018-07-24T16:23:11.137Z,5.07
2018-07-24T16:25:39.428Z,6.43
2018-07-24T16:28:08.029Z,5.53
2018-07-24T16:30:36.343Z,4.87
2018-07-24T16:33:04.724Z,5.10
2018-07-24T16:35:33.139Z,5.50
2018-07-24T16:38:01.637Z,5.17
2018-07-24T16:40:30.760Z,5.33
2018-07-24T16:42:59.084Z,7.13
2018-07-24T16:45:27.721Z,6.30
2018-07-24T16:47:56.661Z,5.63
2018-07-24T16:50:25.720Z,6.00
2018-07-24T16:52:55.272Z,5.50
2018-07-24T16:55:23.788Z,5.73
2018-07-24T16:57:52.975Z,6.77
2018-07-24T17:00:21.494Z,7.10
2018-07-24T17:02:50.211Z,7.20
2018-07-24T17:05:18.721Z,7.20
2018-07-24T17:07:47.495Z,6.80
2018-07-24T17:10:16.375Z,9.00
2018-07-24T17:12:45.056Z,6.20
2018-07-24T17:15:13.468Z,6.27
2018-07-24T17:17:41.779Z,7.10
2018-07-24T17:20:10.445Z,6.40
2018-07-24T17:22:38.821Z,6.93
2018-07-24T17:25:07.477Z,7.20
2018-07-24T17:27:36.202Z,7.20
2018-07-24T17:30:05.160Z,5.80
2018-07-24T17:32:33.454Z,7.60
2018-07-24T17:35:02.012Z,8.43
2018-07-24T17:37:31.267Z,7.10
2018-07-24T17:39:59.419Z,6.90
2018-07-24T17:42:28.316Z,6.42
2018-07-24T17:44:56.787Z,6.83
2018-07-24T17:47:25.677Z,5.70
2018-07-24T17:49:54.196Z,6.60
2018-07-24T17:52:22.844Z,5.70
2018-07-24T17:54:51.316Z,6.53
2018-07-24T17:57:19.684Z,7.73
2018-07-24T17:59:48.159Z,5.50
2018-07-24T18:02:16.653Z,5.73
2018-07-24T18:04:45.649Z,6.42
2018-07-24T18:07:14.584Z,6.73
2018-07-24T18:09:43.083Z,6.10
2018-07-24T18:12:11.482Z,9.03
2018-07-24T18:14:40.310Z,5.75
2018-07-24T18:17:08.697Z,11.00
2018-07-24T18:19:37.065Z,7.57
2018-07-24T18:22:06.625Z,7.28
2018-07-24T18:24:35.297Z,7.03
2018-07-24T18:27:04.160Z,6.10
2018-07-24T18:29:34.000Z,7.43
2018-07-24T18:32:03.021Z,6.90
2018-07-24T18:34:31.933Z,6.73
2018-07-24T18:37:00.743Z,9.63
2018-07-24T18:39:29.336Z,8.58
2018-07-24T18:41:58.412Z,6.77
2018-07-24T18:44:26.788Z,8.13
2018-07-24T18:46:55.554Z,7.20
2018-07-24T18:49:24.448Z,7.85
2018-07-24T18:51:53.257Z,8.80
2018-07-24T18:54:21.590Z,6.77
2018-07-24T18:56:50.221Z,7.47
2018-07-24T18:59:18.784Z,7.03
2018-07-24T19:01:47.469Z,7.30
2018-07-24T19:04:16.069Z,7.65
2018-07-24T19:06:44.700Z,7.73
2018-07-24T19:09:13.135Z,8.20
2018-07-24T19:11:42.229Z,7.30
2018-07-24T19:14:10.715Z,7.80
2018-07-24T19:16:39.260Z,10.43
2018-07-24T19:19:07.680Z,8.53
2018-07-24T19:21:36.107Z,8.67
2018-07-24T19:24:05.177Z,9.33
2018-07-24T19:26:33.831Z,8.90
2018-07-24T19:29:02.467Z,9.70
2018-07-24T19:31:32.136Z,10.83
2018-07-24T19:34:02.043Z,8.70
2018-07-24T19:36:32.993Z,13.53
2018-07-24T19:39:02.479Z,11.20
2018-07-24T19:41:32.451Z,12.88
2018-07-24T19:44:01.395Z,8.83
2018-07-24T19:46:31.149Z,9.77
2018-07-24T19:49:00.239Z,9.63
2018-07-24T19:51:29.539Z,11.63
2018-07-24T19:53:58.434Z,9.53
2018-07-24T19:56:28.071Z,10.50
2018-07-24T19:58:57.872Z,11.45
2018-07-24T20:01:26.280Z,14.27
2018-07-24T20:03:55.473Z,16.27
2018-07-24T20:06:23.851Z,13.93
2018-07-24T20:08:52.227Z,12.83
2018-07-24T20:11:20.974Z,11.83
2018-07-24T20:13:49.704Z,18.48
2018-07-24T20:16:18.996Z,15.23
2018-07-24T20:18:47.316Z,12.03
2018-07-24T20:21:15.648Z,13.37
2018-07-24T20:23:45.164Z,13.20
2018-07-24T20:26:13.833Z,12.20
2018-07-24T20:28:42.615Z,17.05
2018-07-24T20:31:11.204Z,15.50
2018-07-24T20:33:39.556Z,11.57
2018-07-24T20:36:07.961Z,11.53
2018-07-24T20:38:36.330Z,12.77
2018-07-24T20:41:05.017Z,11.95
2018-07-24T20:43:33.861Z,13.22
2018-07-24T20:46:02.204Z,13.57
2018-07-24T20:48:30.564Z,19.33
2018-07-24T20:50:59.236Z,13.23
2018-07-24T20:53:27.726Z,13.93
2018-07-24T20:55:56.981Z,15.40
2018-07-24T20:58:25.557Z,14.00
2018-07-24T21:00:54.564Z,11.37
2018-07-24T21:03:23.261Z,13.10
2018-07-24T21:05:52.003Z,16.73
2018-07-24T21:08:21.024Z,13.43
2018-07-24T21:10:49.725Z,13.47
2018-07-24T21:13:18.148Z,12.93
2018-07-24T21:15:46.458Z,13.63
2018-07-24T21:18:15.261Z,13.80
2018-07-24T21:20:43.604Z,14.17
2018-07-24T21:23:11.969Z,13.10
2018-07-24T21:25:40.439Z,15.03
2018-07-24T21:28:08.852Z,12.67
2018-07-24T21:30:37.262Z,12.47
2018-07-24T21:33:05.985Z,12.90
2018-07-24T21:35:34.629Z,17.07
2018-07-24T21:38:02.960Z,13.77
2018-07-24T21:40:31.496Z,17.70
2018-07-24T21:43:00.015Z,12.97
2018-07-24T21:45:28.448Z,14.07
2018-07-24T21:47:56.854Z,17.63
2018-07-24T21:50:25.366Z,16.30
2018-07-24T21:52:53.688Z,15.20
2018-07-24T21:55:22.373Z,17.03
2018-07-24T21:57:51.201Z,14.58
2018-07-24T22:00:19.974Z,15.70
2018-07-24T22:02:48.488Z,16.13
2018-07-24T22:05:17.172Z,15.07
2018-07-24T22:07:45.916Z,14.67
2018-07-24T22:10:19.859Z,18.07
2018-07-24T22:12:48.239Z,13.83
2018-07-24T22:15:23.759Z,15.27
2018-07-24T22:17:52.562Z,15.67
2018-07-24T22:20:21.257Z,16.60
2018-07-24T22:22:50.194Z,18.77
2018-07-24T22:25:18.552Z,14.87
2018-07-24T22:27:47.219Z,22.33
2018-07-24T22:30:15.912Z,13.77
2018-07-24T22:32:44.295Z,19.17
2018-07-24T22:35:13.297Z,15.63
2018-07-24T22:37:41.659Z,18.57
2018-07-24T22:40:11.371Z,18.97
2018-07-24T22:42:40.912Z,17.87
2018-07-24T22:45:09.753Z,17.10
2018-07-24T22:47:38.120Z,17.47
2018-07-24T22:50:07.136Z,16.27
2018-07-24T22:52:35.661Z,18.30
2018-07-24T22:55:05.182Z,14.97
2018-07-24T22:57:33.814Z,14.75
2018-07-24T23:00:02.444Z,15.30
2018-07-24T23:02:31.077Z,18.35
2018-07-24T23:04:59.760Z,16.67
2018-07-24T23:07:28.148Z,15.93
2018-07-24T23:09:56.855Z,17.63
2018-07-24T23:12:25.545Z,17.70
2018-07-24T23:14:53.931Z,16.50
2018-07-24T23:17:22.437Z,15.57
2018-07-24T23:19:50.932Z,17.00
2018-07-24T23:22:19.870Z,15.73
2018-07-24T23:24:48.519Z,14.30
2018-07-24T23:27:17.035Z,16.30
2018-07-24T23:29:45.576Z,16.70
2018-07-24T23:32:14.829Z,18.30
2018-07-24T23:34:43.500Z,17.45
2018-07-24T23:37:12.088Z,15.53
2018-07-24T23:39:40.740Z,15.57
2018-07-24T23:42:10.009Z,20.27
2018-07-24T23:44:38.677Z,16.00
2018-07-24T23:47:07.056Z,15.60
2018-07-24T23:49:35.836Z,14.60
2018-07-24T23:52:04.739Z,18.47
2018-07-24T23:54:33.222Z,15.30
2018-07-24T23:57:01.565Z,16.63
2018-07-24T23:59:30.009Z,17.40
